createdAt,value
2022-08-20T00:01:05.034Z,16.32
2022-08-20T00:03:37.557Z,16.10
2022-08-20T00:06:05.233Z,16.21
2022-08-20T00:08:33.234Z,16.14
2022-08-20T00:11:02.653Z,15.92
2022-08-20T00:13:33.250Z,15.94
2022-08-20T00:16:01.517Z,16.21
2022-08-20T00:18:29.113Z,16.06
2022-08-20T00:20:57.019Z,16.33
2022-08-20T00:23:25.843Z,16.23
2022-08-20T00:25:53.624Z,16.27
2022-08-20T00:28:21.743Z,16.08
2022-08-20T00:30:49.822Z,16.04
2022-08-20T00:33:19.117Z,16.08
2022-08-20T00:35:48.908Z,16.00
2022-08-20T00:38:16.855Z,15.90
2022-08-20T00:40:55.119Z,15.86
2022-08-20T00:43:29.381Z,15.96
2022-08-20T00:45:58.816Z,15.93
2022-08-20T00:48:27.975Z,15.65
2022-08-20T00:50:59.890Z,15.77
2022-08-20T00:53:28.905Z,15.56
2022-08-20T00:55:56.703Z,15.64
2022-08-20T00:58:24.993Z,15.45
2022-08-20T01:00:52.923Z,15.68
2022-08-20T01:03:21.148Z,15.64
2022-08-20T01:05:50.028Z,15.60
2022-08-20T01:08:19.988Z,15.39
2022-08-20T01:10:50.017Z,15.22
2022-08-20T01:13:20.880Z,15.36
2022-08-20T01:15:49.999Z,15.21
2022-08-20T01:18:20.194Z,15.24
2022-08-20T01:20:50.904Z,14.99
2022-08-20T01:23:45.204Z,15.07
2022-08-20T01:26:21.490Z,14.58
2022-08-20T01:28:55.265Z,14.55
2022-08-20T01:31:24.378Z,14.29
2022-08-20T01:33:53.277Z,14.47
2022-08-20T01:36:38.494Z,14.28
2022-08-20T01:39:10.073Z,14.33
2022-08-20T01:41:37.862Z,14.71
2022-08-20T01:44:06.027Z,14.15
2022-08-20T01:46:44.060Z,14.24
2022-08-20T01:49:23.761Z,14.17
2022-08-20T01:51:53.279Z,14.08
2022-08-20T01:54:21.680Z,14.01
2022-08-20T01:56:54.959Z,13.88
2022-08-20T01:59:23.199Z,13.85
2022-08-20T02:01:51.060Z,14.07
2022-08-20T02:04:19.741Z,14.02
2022-08-20T02:06:57.024Z,14.09
2022-08-20T02:09:27.335Z,14.12
2022-08-20T02:11:55.222Z,13.85
2022-08-20T02:14:22.918Z,13.92
2022-08-20T02:16:54.969Z,14.02
2022-08-20T02:19:26.288Z,13.86
2022-08-20T02:21:58.972Z,14.01
2022-08-20T02:24:26.534Z,14.17
2022-08-20T02:26:55.396Z,14.06
2022-08-20T02:29:24.155Z,13.82
2022-08-20T02:32:24.375Z,14.25
2022-08-20T02:34:40.284Z,14.27
2022-08-20T02:37:08.128Z,14.46
2022-08-20T02:39:36.126Z,14.15
2022-08-20T02:42:04.922Z,14.15
2022-08-20T02:44:32.566Z,14.13
2022-08-20T02:47:01.272Z,14.40
2022-08-20T02:49:29.260Z,14.39
2022-08-20T02:51:56.792Z,14.05
2022-08-20T02:54:24.837Z,14.29
2022-08-20T02:56:52.820Z,14.42
2022-08-20T02:59:20.398Z,14.17
2022-08-20T03:01:59.216Z,14.55
2022-08-20T03:04:29.551Z,14.53
2022-08-20T03:06:57.320Z,14.50
2022-08-20T03:09:25.106Z,14.76
2022-08-20T03:11:53.248Z,14.54
2022-08-20T03:14:20.879Z,14.52
2022-08-20T03:16:48.516Z,14.90
2022-08-20T03:19:16.513Z,14.53
2022-08-20T03:21:44.121Z,14.70
2022-08-20T03:24:11.703Z,14.92
2022-08-20T03:26:39.653Z,15.00
2022-08-20T03:29:07.206Z,14.73
2022-08-20T03:31:34.853Z,14.78
2022-08-20T03:34:02.812Z,14.90
2022-08-20T03:36:30.714Z,15.30
2022-08-20T03:38:59.816Z,15.54
2022-08-20T03:41:29.345Z,15.51
2022-08-20T03:43:56.957Z,15.76
2022-08-20T03:46:25.289Z,15.77
2022-08-20T03:49:00.310Z,16.11
2022-08-20T03:51:30.020Z,16.18
2022-08-20T03:53:58.223Z,16.69
2022-08-20T03:56:25.971Z,16.90
2022-08-20T03:58:56.576Z,17.05
2022-08-20T04:01:37.101Z,17.51
2022-08-20T04:04:12.869Z,17.82
2022-08-20T04:06:41.301Z,18.07
2022-08-20T04:09:11.875Z,18.16
2022-08-20T04:11:43.308Z,18.05
2022-08-20T04:14:11.847Z,17.91
2022-08-20T04:16:46.350Z,17.72
2022-08-20T04:19:16.714Z,17.81
2022-08-20T04:21:44.287Z,17.65
2022-08-20T04:24:22.623Z,17.98
2022-08-20T04:26:59.797Z,18.01
2022-08-20T04:29:32.085Z,18.47
2022-08-20T04:32:03.324Z,18.67
2022-08-20T04:34:33.919Z,18.72
2022-08-20T04:37:01.622Z,18.67
2022-08-20T04:39:29.150Z,18.55
2022-08-20T04:41:57.157Z,18.60
2022-08-20T04:44:24.886Z,18.79
2022-08-20T04:46:52.437Z,18.90
2022-08-20T04:49:23.286Z,18.94
2022-08-20T04:51:51.158Z,19.11
2022-08-20T04:54:19.092Z,19.08
2022-08-20T04:56:49.761Z,19.07
2022-08-20T04:59:17.368Z,18.97
2022-08-20T05:01:45.843Z,18.90
2022-08-20T05:04:13.817Z,18.88
2022-08-20T05:06:41.564Z,18.92
2022-08-20T05:09:09.170Z,18.91
2022-08-20T05:11:37.226Z,18.70
2022-08-20T05:16:57.821Z,18.78
2022-08-20T05:19:25.410Z,19.07
2022-08-20T05:21:53.972Z,18.98
2022-08-20T05:24:21.943Z,18.87
2022-08-20T05:26:49.546Z,18.95
2022-08-20T05:29:17.319Z,18.86
2022-08-20T05:31:45.263Z,19.14
2022-08-20T05:34:13.270Z,18.94
2022-08-20T05:36:42.242Z,19.29
2022-08-20T05:39:10.795Z,19.32
2022-08-20T05:41:39.018Z,19.47
2022-08-20T05:44:11.061Z,19.35
2022-08-20T05:46:41.161Z,19.48
2022-08-20T05:49:09.297Z,19.14
2022-08-20T05:51:37.357Z,19.36
2022-08-20T05:54:06.245Z,19.62
2022-08-20T05:56:34.238Z,19.52
2022-08-20T05:59:05.743Z,19.51
2022-08-20T06:01:35.110Z,19.52
2022-08-20T06:04:22.133Z,19.52
2022-08-20T06:06:52.021Z,19.50
2022-08-20T06:09:31.053Z,19.63
2022-08-20T06:12:04.133Z,19.63
2022-08-20T06:14:32.977Z,19.82
2022-08-20T06:17:04.810Z,19.89
2022-08-20T06:19:34.312Z,19.91
2022-08-20T06:22:05.083Z,19.95
2022-08-20T06:24:46.221Z,20.23
2022-08-20T06:27:15.850Z,20.00
2022-08-20T06:29:44.112Z,19.91
2022-08-20T06:32:12.126Z,20.51
2022-08-20T06:34:49.787Z,20.85
2022-08-20T06:37:27.435Z,21.04
2022-08-20T06:40:08.707Z,20.98
2022-08-20T06:42:47.782Z,21.11
2022-08-20T06:45:18.273Z,21.03
2022-08-20T06:47:46.956Z,21.28
2022-08-20T06:50:17.009Z,21.41
2022-08-20T06:52:52.425Z,21.22
2022-08-20T06:55:21.901Z,21.37
2022-08-20T06:57:56.375Z,21.43
2022-08-20T07:00:24.468Z,21.66
2022-08-20T07:02:52.133Z,21.56
2022-08-20T07:05:19.904Z,21.59
2022-08-20T07:07:49.956Z,21.85
2022-08-20T07:10:18.593Z,21.84
2022-08-20T07:12:47.268Z,22.00
2022-08-20T07:15:15.583Z,22.09
2022-08-20T07:17:43.174Z,22.33
2022-08-20T07:20:14.528Z,22.42
2022-08-20T07:22:42.832Z,22.73
2022-08-20T07:25:12.912Z,22.83
2022-08-20T07:27:41.160Z,22.65
2022-08-20T07:30:29.604Z,22.86
2022-08-20T07:32:58.205Z,22.45
2022-08-20T07:35:27.453Z,22.43
2022-08-20T07:37:55.263Z,22.93
2022-08-20T07:40:26.397Z,22.84
2022-08-20T07:42:54.980Z,22.55
2022-08-20T07:45:22.871Z,22.58
2022-08-20T07:47:51.108Z,22.76
2022-08-20T07:50:20.012Z,22.72
2022-08-20T07:52:48.321Z,22.46
2022-08-20T07:55:19.599Z,22.09
2022-08-20T07:57:49.238Z,22.06
2022-08-20T08:00:18.450Z,22.56
2022-08-20T08:02:47.015Z,22.35
2022-08-20T08:05:14.843Z,22.11
2022-08-20T08:07:43.101Z,22.14
2022-08-20T08:10:12.865Z,22.52
2022-08-20T08:12:42.857Z,22.58
2022-08-20T08:15:13.241Z,22.57
2022-08-20T08:17:41.143Z,22.69
2022-08-20T08:20:09.679Z,22.32
2022-08-20T08:22:37.891Z,22.58
2022-08-20T08:25:06.055Z,22.47
2022-08-20T08:27:34.451Z,22.50
2022-08-20T08:30:03.446Z,22.65
2022-08-20T08:32:34.221Z,22.08
2022-08-20T08:35:04.764Z,22.49
2022-08-20T08:37:32.581Z,22.36
2022-08-20T08:40:01.808Z,21.93
2022-08-20T08:42:43.280Z,22.52
2022-08-20T08:45:11.322Z,22.12
2022-08-20T08:47:40.701Z,21.99
2022-08-20T08:50:13.382Z,21.99
2022-08-20T08:52:43.913Z,21.84
2022-08-20T08:55:16.202Z,21.88
2022-08-20T08:57:44.309Z,22.19
2022-08-20T09:00:17.687Z,21.92
2022-08-20T09:02:55.165Z,21.86
2022-08-20T09:05:26.427Z,21.78
2022-08-20T09:07:54.821Z,21.77
2022-08-20T09:10:23.642Z,21.84
2022-08-20T09:12:52.616Z,21.92
2022-08-20T09:15:21.651Z,21.81
2022-08-20T09:17:49.320Z,21.80
2022-08-20T09:20:18.689Z,21.87
2022-08-20T09:22:46.838Z,21.69
2022-08-20T09:25:16.215Z,21.59
2022-08-20T09:27:43.911Z,21.66
2022-08-20T09:30:15.071Z,21.49
2022-08-20T09:32:43.321Z,21.48
2022-08-20T09:35:11.184Z,21.60
2022-08-20T09:37:39.329Z,21.43
2022-08-20T09:40:09.050Z,21.39
2022-08-20T09:42:41.251Z,21.48
2022-08-20T09:45:11.504Z,21.92
2022-08-20T09:47:41.743Z,21.48
2022-08-20T09:50:24.254Z,20.99
2022-08-20T09:52:53.698Z,21.27
2022-08-20T09:55:21.591Z,21.20
2022-08-20T09:57:50.746Z,21.14
2022-08-20T10:00:18.501Z,21.25
2022-08-20T10:02:46.627Z,21.19
2022-08-20T10:05:14.511Z,21.11
2022-08-20T10:07:42.568Z,21.01
2022-08-20T10:10:12.106Z,20.90
2022-08-20T10:12:41.863Z,21.11
2022-08-20T10:15:10.320Z,21.29
2022-08-20T10:17:41.826Z,21.29
2022-08-20T10:20:11.816Z,21.17
2022-08-20T10:22:39.629Z,21.38
2022-08-20T10:25:07.469Z,21.26
2022-08-20T10:27:38.199Z,21.39
2022-08-20T10:30:06.959Z,21.52
2022-08-20T10:35:22.556Z,21.83
2022-08-20T10:37:50.681Z,21.76
2022-08-20T10:40:18.578Z,22.34
2022-08-20T10:42:46.424Z,22.73
2022-08-20T10:45:16.406Z,22.82
2022-08-20T10:47:44.590Z,23.01
2022-08-20T10:50:17.620Z,23.34
2022-08-20T10:52:46.341Z,23.31
2022-08-20T10:55:14.593Z,23.40
2022-08-20T10:57:43.467Z,23.84
2022-08-20T11:00:15.400Z,24.19
2022-08-20T11:02:43.154Z,24.00
2022-08-20T11:05:13.320Z,23.88
2022-08-20T11:07:49.939Z,23.74
2022-08-20T11:10:29.277Z,24.10
2022-08-20T11:13:25.423Z,23.64
2022-08-20T11:15:53.251Z,23.60
2022-08-20T11:18:23.590Z,24.22
2022-08-20T11:20:51.280Z,23.60
2022-08-20T11:23:18.951Z,23.44
2022-08-20T11:25:48.663Z,23.31
2022-08-20T11:28:16.660Z,23.57
2022-08-20T11:31:00.334Z,23.92
2022-08-20T11:33:28.040Z,24.15
2022-08-20T11:35:55.771Z,23.48
2022-08-20T11:38:23.955Z,23.82
2022-08-20T11:40:51.801Z,23.96
2022-08-20T11:43:19.569Z,23.93
2022-08-20T11:45:55.744Z,24.04
2022-08-20T11:48:23.526Z,23.80
2022-08-20T11:50:52.042Z,24.25
2022-08-20T11:53:19.790Z,23.88
2022-08-20T11:55:49.365Z,23.87
2022-08-20T11:58:18.115Z,24.22
2022-08-20T12:00:45.906Z,24.09
2022-08-20T12:03:14.014Z,24.23
2022-08-20T12:05:43.095Z,23.86
2022-08-20T12:08:27.410Z,23.92
2022-08-20T12:10:58.103Z,24.00
2022-08-20T12:13:47.196Z,24.08
2022-08-20T12:16:15.344Z,23.68
2022-08-20T12:18:43.189Z,23.60
2022-08-20T12:21:10.983Z,23.47
2022-08-20T12:23:39.210Z,23.37
2022-08-20T12:26:06.962Z,23.16
2022-08-20T12:28:34.749Z,23.61
2022-08-20T12:31:02.884Z,23.72
2022-08-20T12:33:30.731Z,23.53
2022-08-20T12:36:01.308Z,23.34
2022-08-20T12:38:29.364Z,23.27
2022-08-20T12:40:57.124Z,23.07
2022-08-20T12:43:25.345Z,23.27
2022-08-20T12:45:53.496Z,22.56
2022-08-20T12:48:21.348Z,22.51
2022-08-20T12:50:50.512Z,22.42
2022-08-20T12:53:19.069Z,22.71
2022-08-20T12:55:47.218Z,22.62
2022-08-20T12:58:14.864Z,22.71
2022-08-20T13:00:45.978Z,22.81
2022-08-20T13:03:16.294Z,22.69
2022-08-20T13:05:44.248Z,22.71
2022-08-20T13:08:12.305Z,22.97
2022-08-20T13:10:44.587Z,22.54
2022-08-20T13:13:13.345Z,22.77
2022-08-20T13:15:41.182Z,23.07
2022-08-20T13:18:09.273Z,22.97
2022-08-20T13:20:37.532Z,23.06
2022-08-20T13:23:05.555Z,22.72
2022-08-20T13:25:34.044Z,23.00
2022-08-20T13:28:04.832Z,23.44
2022-08-20T13:30:33.612Z,23.19
2022-08-20T13:33:01.310Z,23.30
2022-08-20T13:35:29.926Z,23.37
2022-08-20T13:37:57.612Z,23.52
2022-08-20T13:40:26.183Z,23.60
2022-08-20T13:42:54.517Z,24.10
2022-08-20T13:45:22.165Z,24.14
2022-08-20T13:47:52.757Z,24.38
2022-08-20T13:50:22.011Z,24.85
2022-08-20T13:52:49.757Z,24.92
2022-08-20T13:55:19.147Z,24.88
2022-08-20T13:57:48.059Z,24.98
2022-08-20T14:00:17.942Z,24.71
2022-08-20T14:02:46.233Z,24.43
2022-08-20T14:05:18.594Z,24.89
2022-08-20T14:07:48.483Z,24.70
2022-08-20T14:10:18.361Z,24.95
2022-08-20T14:12:48.255Z,24.94
2022-08-20T14:15:16.099Z,25.14
2022-08-20T14:17:49.630Z,25.04
2022-08-20T14:20:20.087Z,24.93
2022-08-20T14:22:47.794Z,25.12
2022-08-20T14:25:16.500Z,25.15
2022-08-20T14:27:44.537Z,25.33
2022-08-20T14:30:14.440Z,25.23
2022-08-20T14:32:42.171Z,25.28
2022-08-20T14:35:10.917Z,25.45
2022-08-20T14:37:40.921Z,25.71
2022-08-20T14:40:10.295Z,25.69
2022-08-20T14:42:38.600Z,25.58
2022-08-20T14:45:07.401Z,25.89
2022-08-20T14:47:36.301Z,26.40
2022-08-20T14:50:09.301Z,26.72
2022-08-20T14:52:37.281Z,26.95
2022-08-20T14:55:06.293Z,27.22
2022-08-20T14:57:34.104Z,27.21
2022-08-20T15:00:02.013Z,27.06
2022-08-20T15:02:31.473Z,26.77
2022-08-20T15:04:59.183Z,26.22
2022-08-20T15:07:32.096Z,25.78
2022-08-20T15:10:01.925Z,25.39
2022-08-20T15:12:30.580Z,24.77
2022-08-20T15:15:05.893Z,24.59
2022-08-20T15:17:45.246Z,24.20
2022-08-20T15:20:20.351Z,23.86
2022-08-20T15:22:49.622Z,23.49
2022-08-20T15:25:19.504Z,23.27
2022-08-20T15:27:47.721Z,23.39
2022-08-20T15:30:17.234Z,23.08
2022-08-20T15:32:45.584Z,23.16
2022-08-20T15:35:13.632Z,22.84
2022-08-20T15:37:42.911Z,22.97
2022-08-20T15:40:12.377Z,23.00
2022-08-20T15:42:44.002Z,22.59
2022-08-20T15:45:22.007Z,22.66
2022-08-20T15:47:53.787Z,22.50
2022-08-20T15:50:38.355Z,22.34
2022-08-20T15:53:10.256Z,22.32
2022-08-20T15:55:41.369Z,22.11
2022-08-20T15:58:29.122Z,22.28
2022-08-20T16:01:24.218Z,22.21
2022-08-20T16:07:00.732Z,22.11
2022-08-20T16:09:38.585Z,22.01
2022-08-20T16:12:11.529Z,22.08
2022-08-20T16:14:41.384Z,21.63
2022-08-20T16:17:15.451Z,21.61
2022-08-20T16:20:02.383Z,21.03
2022-08-20T16:22:31.972Z,21.13
2022-08-20T16:25:00.711Z,21.21
2022-08-20T16:27:33.175Z,20.89
2022-08-20T16:30:03.586Z,21.12
2022-08-20T16:32:31.481Z,20.81
2022-08-20T16:35:03.202Z,20.78
2022-08-20T16:37:38.269Z,20.43
2022-08-20T16:40:26.231Z,20.74
2022-08-20T16:42:57.265Z,20.34
2022-08-20T16:45:27.239Z,20.22
2022-08-20T16:47:59.752Z,20.17
2022-08-20T16:50:34.076Z,20.06
2022-08-20T16:53:02.236Z,19.87
2022-08-20T16:55:29.927Z,19.80
2022-08-20T16:57:57.623Z,19.68
2022-08-20T17:00:35.275Z,19.75
2022-08-20T17:03:04.992Z,19.79
2022-08-20T17:05:38.914Z,19.93
2022-08-20T17:08:16.585Z,19.78
2022-08-20T17:11:07.350Z,19.93
2022-08-20T17:13:37.390Z,19.83
2022-08-20T17:16:07.889Z,19.63
2022-08-20T17:18:37.608Z,19.49
2022-08-20T17:21:23.621Z,19.61
2022-08-20T17:23:59.012Z,19.66
2022-08-20T17:26:32.351Z,19.67
2022-08-20T17:29:01.235Z,19.69
2022-08-20T17:31:38.825Z,19.75
2022-08-20T17:34:14.114Z,19.66
2022-08-20T17:36:52.368Z,19.71
2022-08-20T17:39:21.536Z,19.61
2022-08-20T17:41:50.851Z,19.55
2022-08-20T17:44:21.900Z,19.53
2022-08-20T17:46:50.747Z,19.55
2022-08-20T17:49:20.187Z,19.54
2022-08-20T17:51:52.977Z,19.45
2022-08-20T17:54:21.261Z,19.44
2022-08-20T17:56:52.771Z,19.19
2022-08-20T17:59:59.614Z,19.22
2022-08-20T18:02:21.229Z,19.21
2022-08-20T18:04:49.824Z,19.22
2022-08-20T18:07:27.633Z,19.19
2022-08-20T18:09:58.289Z,19.34
2022-08-20T18:12:35.858Z,19.21
2022-08-20T18:15:10.241Z,19.20
2022-08-20T18:17:58.815Z,18.96
2022-08-20T18:20:45.720Z,19.19
2022-08-20T18:23:16.947Z,19.14
2022-08-20T18:25:50.468Z,18.88
2022-08-20T18:28:18.149Z,18.98
2022-08-20T18:30:50.922Z,18.75
2022-08-20T18:33:32.402Z,18.83
2022-08-20T18:36:08.567Z,18.79
2022-08-20T18:38:39.310Z,18.84
2022-08-20T18:41:07.342Z,18.87
2022-08-20T18:43:36.042Z,18.80
2022-08-20T18:46:12.108Z,18.87
2022-08-20T18:48:50.420Z,18.80
2022-08-20T18:51:20.258Z,18.82
2022-08-20T18:53:51.922Z,18.85
2022-08-20T18:56:30.059Z,18.78
2022-08-20T18:59:00.772Z,18.57
2022-08-20T19:01:28.727Z,18.65
2022-08-20T19:03:56.790Z,18.56
2022-08-20T19:06:29.175Z,18.59
2022-08-20T19:09:01.369Z,18.61
2022-08-20T19:11:40.802Z,18.61
2022-08-20T19:14:11.586Z,18.45
2022-08-20T19:16:59.967Z,18.47
2022-08-20T19:19:32.677Z,18.54
2022-08-20T19:22:02.736Z,18.63
2022-08-20T19:24:31.915Z,18.63
2022-08-20T19:27:01.689Z,18.55
2022-08-20T19:29:31.339Z,18.33
2022-08-20T19:32:02.220Z,18.24
2022-08-20T19:34:31.867Z,18.31
2022-08-20T19:37:04.549Z,18.22
2022-08-20T19:39:51.091Z,18.14
2022-08-20T19:42:19.015Z,18.08
2022-08-20T19:44:52.329Z,18.05
2022-08-20T19:47:30.129Z,18.04
2022-08-20T19:50:09.960Z,17.91
2022-08-20T19:52:42.846Z,17.86
2022-08-20T19:55:16.394Z,17.80
2022-08-20T19:57:51.741Z,17.86
2022-08-20T20:00:20.049Z,17.71
2022-08-20T20:02:48.257Z,17.75
2022-08-20T20:05:16.537Z,17.72
2022-08-20T20:07:48.211Z,17.35
2022-08-20T20:10:37.122Z,17.29
2022-08-20T20:13:17.402Z,17.31
2022-08-20T20:15:45.671Z,17.25
2022-08-20T20:18:14.062Z,17.38
2022-08-20T20:20:55.903Z,17.32
2022-08-20T20:23:45.556Z,17.43
2022-08-20T20:29:06.911Z,17.21
2022-08-20T20:31:38.634Z,17.41
2022-08-20T20:34:11.794Z,17.18
2022-08-20T20:36:44.661Z,17.25
2022-08-20T20:39:28.378Z,17.33
2022-08-20T20:41:57.673Z,17.22
2022-08-20T20:44:28.780Z,17.29
2022-08-20T20:46:58.289Z,17.25
2022-08-20T20:49:37.840Z,17.12
2022-08-20T20:52:14.972Z,17.08
2022-08-20T20:54:44.932Z,17.09
2022-08-20T20:57:15.669Z,17.04
2022-08-20T20:59:44.052Z,16.96
2022-08-20T21:02:11.680Z,16.82
2022-08-20T21:04:42.499Z,16.81
2022-08-20T21:07:13.049Z,16.80
2022-08-20T21:09:41.573Z,16.79
2022-08-20T21:12:10.444Z,16.83
2022-08-20T21:14:38.668Z,16.61
2022-08-20T21:17:07.473Z,16.81
2022-08-20T21:19:35.030Z,16.75
2022-08-20T21:22:13.551Z,16.57
2022-08-20T21:24:41.326Z,16.48
2022-08-20T21:27:09.011Z,16.40
2022-08-20T21:29:40.551Z,16.26
2022-08-20T21:32:08.380Z,16.13
2022-08-20T21:34:40.434Z,16.36
2022-08-20T21:37:08.038Z,16.37
2022-08-20T21:42:29.169Z,16.25
2022-08-20T21:45:00.124Z,16.10
2022-08-20T21:47:28.607Z,15.85
2022-08-20T21:49:56.162Z,15.84
2022-08-20T21:52:24.834Z,15.66
2022-08-20T21:54:53.343Z,15.68
2022-08-20T21:57:26.624Z,15.49
2022-08-20T21:59:55.573Z,15.50
2022-08-20T22:02:25.187Z,15.41
2022-08-20T22:04:54.121Z,15.30
2022-08-20T22:07:22.283Z,15.18
2022-08-20T22:09:49.872Z,15.24
2022-08-20T22:12:20.495Z,14.94
2022-08-20T22:14:48.230Z,15.06
2022-08-20T22:17:15.993Z,14.77
2022-08-20T22:19:43.985Z,14.95
2022-08-20T22:22:12.368Z,14.90
2022-08-20T22:24:39.962Z,14.58
2022-08-20T22:27:08.127Z,14.97
2022-08-20T22:29:35.811Z,14.56
2022-08-20T22:32:04.083Z,14.71
2022-08-20T22:34:36.503Z,14.71
2022-08-20T22:37:06.730Z,14.66
2022-08-20T22:39:34.774Z,14.57
2022-08-20T22:42:02.415Z,14.88
2022-08-20T22:44:29.922Z,14.66
2022-08-20T22:47:00.521Z,14.60
2022-08-20T22:49:29.482Z,14.68
2022-08-20T22:51:57.688Z,14.88
2022-08-20T22:54:25.830Z,14.61
2022-08-20T22:56:54.470Z,14.57
2022-08-20T22:59:22.104Z,14.46
2022-08-20T23:01:51.659Z,14.56
2022-08-20T23:04:29.891Z,14.73
2022-08-20T23:06:58.560Z,14.46
2022-08-20T23:09:26.777Z,14.82
2022-08-20T23:11:54.361Z,14.62
2022-08-20T23:17:13.215Z,14.38
2022-08-20T23:19:42.084Z,14.48
2022-08-20T23:22:09.787Z,14.46
2022-08-20T23:24:37.474Z,14.32
2022-08-20T23:27:06.592Z,14.38
2022-08-20T23:29:34.541Z,14.56
2022-08-20T23:32:02.252Z,14.33
2022-08-20T23:34:30.247Z,14.43
2022-08-20T23:36:57.827Z,14.53
2022-08-20T23:39:26.007Z,14.41
2022-08-20T23:41:53.908Z,14.35
2022-08-20T23:44:26.614Z,14.27
2022-08-20T23:46:56.191Z,14.33
2022-08-20T23:49:23.774Z,14.51
2022-08-20T23:51:51.376Z,14.27
2022-08-20T23:54:19.417Z,14.02
2022-08-20T23:56:47.028Z,14.10
2022-08-20T23:59:14.547Z,14.17
